EDDB/SXF METAR and TAF weather

Enter ICAO airport designator
Station Type Date Time Source
EDDB METAR 2018/06/25 16:50 UTC NOAA

EDDB 251650Z 32013KT 9999 FEW035 BKN140 20/12 Q1020 NOSIG


Station Type Date Time Source
EDDB Decoded METAR 2018/06/25 16:50 UTC NOAA

Berlin-Schoenefeld, Germany (EDDB) 52-23N 013-31E 50M
Jun 25, 2018 - 12:50 PM EDT / 2018.06.25 1650 UTC
Wind: from the NW (320 degrees) at 15 MPH (13 KT):0
Visibility: greater than 7 mile(s):0
Sky conditions: mostly cloudy
Temperature: 68 F (20 C)
Dew Point: 53 F (12 C)
Relative Humidity: 59%
Pressure (altimeter): 30.12 in. Hg (1020 hPa)
ob: EDDB 251650Z 32013KT 9999 FEW035 BKN140 20/12 Q1020 NOSIG
cycle: 17

Station Type Date Time Source
EDDB TAF 2018/06/25 12:31 UTC NOAA

TAF EDDB 251100Z 2512/2612 28010KT 9999 SCT030
BECMG 2519/2521 30005KT
TEMPO 2602/2607 4000 BR BKN007


Example: see airport list